createdAt,value
2019-04-20T00:01:22.884Z,100844.99
2019-04-20T00:03:49.034Z,100846.94
2019-04-20T00:06:19.557Z,100852.73
2019-04-20T00:08:55.656Z,100843.98
2019-04-20T00:11:27.448Z,100847.03
2019-04-20T00:14:01.274Z,100847.27
2019-04-20T00:16:23.220Z,100849.21
2019-04-20T00:18:56.684Z,100842.45
2019-04-20T00:21:46.918Z,100844.02
2019-04-20T00:24:27.322Z,100850.94
2019-04-20T00:27:13.599Z,100848.42
2019-04-20T00:29:47.972Z,100841.95
2019-04-20T00:32:09.825Z,100837.59
2019-04-20T00:34:34.808Z,100843.57
2019-04-20T00:37:00.296Z,100844.91
2019-04-20T00:39:30.081Z,100839.69
2019-04-20T00:42:04.395Z,100843.23
2019-04-20T00:44:35.893Z,100846.27
2019-04-20T00:47:13.300Z,100836.07
2019-04-20T00:49:48.286Z,100826.48
2019-04-20T00:52:27.395Z,100833.06
2019-04-20T00:54:36.943Z,100831.36
2019-04-20T00:57:20.434Z,100826.27
2019-04-20T00:59:59.136Z,100830.75
2019-04-20T01:02:20.974Z,100828.94
2019-04-20T01:05:02.540Z,100826.27
2019-04-20T01:07:43.924Z,100826.63
2019-04-20T01:10:13.188Z,100827.84
2019-04-20T01:12:44.469Z,100819.22
2019-04-20T01:15:25.573Z,100822.52
2019-04-20T01:17:45.981Z,100818.28
2019-04-20T01:20:15.595Z,100819.64
2019-04-20T01:22:53.087Z,100818.91
2019-04-20T01:25:24.821Z,100821.33
2019-04-20T01:28:18.332Z,100815.89
2019-04-20T01:30:27.873Z,100816.01
2019-04-20T01:33:03.942Z,100825.46
2019-04-20T01:35:40.919Z,100822.80
2019-04-20T01:38:12.421Z,100820.98
2019-04-20T01:40:25.485Z,100825.81
2019-04-20T01:42:55.382Z,100831.14
2019-04-20T01:45:30.803Z,100829.22
2019-04-20T01:47:59.439Z,100828.98
2019-04-20T01:50:33.259Z,100829.93
2019-04-20T01:53:10.207Z,100824.73
2019-04-20T01:55:49.006Z,100828.01
2019-04-20T02:00:56.353Z,100825.94
2019-04-20T02:03:40.414Z,100827.61
2019-04-20T02:06:11.596Z,100823.74
2019-04-20T02:08:38.197Z,100819.47
2019-04-20T02:11:09.544Z,100823.36
2019-04-20T02:13:46.711Z,100816.89
2019-04-20T02:16:19.108Z,100817.27
2019-04-20T02:19:00.471Z,100821.72
2019-04-20T02:21:27.652Z,100828.77
2019-04-20T02:23:51.509Z,100832.86
2019-04-20T02:26:16.263Z,100837.55
2019-04-20T02:29:12.336Z,100847.27
2019-04-20T02:32:06.618Z,100844.72
2019-04-20T02:34:59.830Z,100848.20
2019-04-20T02:40:28.782Z,100858.64
2019-04-20T02:42:59.787Z,100863.71
2019-04-20T02:48:00.845Z,100865.13
2019-04-20T02:50:30.483Z,100873.14
2019-04-20T02:53:04.589Z,100877.35
2019-04-20T02:58:05.338Z,100883.51
2019-04-20T03:02:47.361Z,100882.03
2019-04-20T03:05:16.454Z,100875.19
2019-04-20T03:07:57.428Z,100887.66
2019-04-20T03:10:34.297Z,100883.40
2019-04-20T03:13:03.946Z,100881.33
2019-04-20T03:15:32.840Z,100883.59
2019-04-20T03:18:03.417Z,100880.30
2019-04-20T03:20:36.327Z,100885.73
2019-04-20T03:23:23.494Z,100891.67
2019-04-20T03:26:19.200Z,100898.00
2019-04-20T03:28:56.656Z,100892.21
2019-04-20T03:31:54.176Z,100891.97
2019-04-20T03:34:47.453Z,100893.72
2019-04-20T03:36:49.560Z,100896.05
2019-04-20T03:39:10.059Z,100892.39
2019-04-20T03:41:28.204Z,100893.24
2019-04-20T03:43:54.140Z,100889.95
2019-04-20T03:46:31.124Z,100889.79
2019-04-20T03:49:10.661Z,100887.42
2019-04-20T03:51:47.215Z,100890.10
2019-04-20T03:54:15.979Z,100889.98
2019-04-20T03:57:23.608Z,100886.09
2019-04-20T04:00:01.814Z,100885.60
2019-04-20T04:03:02.986Z,100888.08
2019-04-20T04:05:33.991Z,100888.58
2019-04-20T04:08:02.305Z,100886.81
2019-04-20T04:10:30.333Z,100886.48
2019-04-20T04:13:14.828Z,100885.41
2019-04-20T04:15:52.265Z,100884.80
2019-04-20T04:18:24.174Z,100875.91
2019-04-20T04:20:56.151Z,100872.34
2019-04-20T04:23:36.690Z,100873.87
2019-04-20T04:26:08.656Z,100881.39
2019-04-20T04:28:41.022Z,100895.57
2019-04-20T04:31:13.996Z,100895.33
2019-04-20T04:33:59.354Z,100896.73
2019-04-20T04:36:13.560Z,100902.08
2019-04-20T04:38:51.097Z,100887.82
2019-04-20T04:41:25.579Z,100912.86
2019-04-20T04:43:49.454Z,100920.14
2019-04-20T04:46:01.883Z,100926.08
2019-04-20T04:48:35.816Z,100934.12
2019-04-20T04:51:09.035Z,100946.11
2019-04-20T04:53:46.862Z,100939.47
2019-04-20T04:56:11.238Z,100937.91
2019-04-20T04:58:38.467Z,100940.45
2019-04-20T05:01:15.959Z,100938.52
2019-04-20T05:04:02.827Z,100933.36
2019-04-20T05:06:45.800Z,100931.94
2019-04-20T05:09:05.251Z,100943.58
2019-04-20T05:11:32.272Z,100945.34
2019-04-20T05:14:06.755Z,100947.53
2019-04-20T05:16:51.004Z,100937.98
2019-04-20T05:19:23.577Z,100948.34
2019-04-20T05:22:20.614Z,100948.50
2019-04-20T05:25:01.178Z,100960.80
2019-04-20T05:27:46.536Z,100955.58
2019-04-20T05:30:01.133Z,100967.64
2019-04-20T05:32:41.306Z,100972.00
2019-04-20T05:35:40.756Z,100978.15
2019-04-20T05:38:01.152Z,100980.89
2019-04-20T05:40:26.197Z,100984.28
2019-04-20T05:43:16.788Z,100984.12
2019-04-20T05:45:41.370Z,100987.97
2019-04-20T05:48:14.285Z,100980.11
2019-04-20T05:50:48.249Z,100987.17
2019-04-20T05:53:22.176Z,100986.52
2019-04-20T05:55:51.577Z,100982.80
2019-04-20T05:58:29.178Z,100993.89
2019-04-20T06:01:02.776Z,100989.13
2019-04-20T06:03:28.819Z,100975.66
2019-04-20T06:06:05.157Z,100978.86
2019-04-20T06:08:38.966Z,100991.55
2019-04-20T06:11:03.849Z,100985.34
2019-04-20T06:13:37.883Z,100987.12
2019-04-20T06:16:31.578Z,100990.42
2019-04-20T06:19:09.053Z,100989.22
2019-04-20T06:21:43.326Z,100989.95
2019-04-20T06:24:24.939Z,101000.99
2019-04-20T06:29:18.292Z,100997.66
2019-04-20T06:31:53.460Z,100997.61
2019-04-20T06:34:33.392Z,100993.69
2019-04-20T06:36:57.364Z,100998.33
2019-04-20T06:47:09.335Z,101000.94
2019-04-20T06:49:36.660Z,101004.25
2019-04-20T06:55:14.082Z,101010.58
2019-04-20T06:57:45.445Z,101008.69
2019-04-20T07:00:18.015Z,101015.38
2019-04-20T07:02:53.025Z,101019.11
2019-04-20T07:05:22.288Z,101015.98
2019-04-20T07:07:54.733Z,101021.65
2019-04-20T07:10:28.615Z,101017.95
2019-04-20T07:12:49.583Z,101019.55
2019-04-20T07:15:22.662Z,101022.23
2019-04-20T07:21:05.515Z,101026.02
2019-04-20T07:23:40.762Z,101021.97
2019-04-20T07:26:17.061Z,101019.35
2019-04-20T07:28:48.548Z,101031.84
2019-04-20T07:31:06.755Z,101034.21
2019-04-20T07:33:47.981Z,101030.93
2019-04-20T07:36:20.060Z,101033.47
2019-04-20T07:38:51.280Z,101023.42
2019-04-20T07:41:29.853Z,101025.95
2019-04-20T07:44:01.651Z,101026.63
2019-04-20T07:46:34.854Z,101026.02
2019-04-20T07:48:54.318Z,101024.11
2019-04-20T07:51:12.540Z,101032.77
2019-04-20T07:53:57.507Z,101032.03
2019-04-20T07:56:30.504Z,101030.88
2019-04-20T07:58:48.010Z,101030.73
2019-04-20T08:01:45.342Z,101027.07
2019-04-20T08:04:17.170Z,101023.94
2019-04-20T08:06:38.016Z,101024.88
2019-04-20T08:09:14.525Z,101021.44
2019-04-20T08:11:55.205Z,101025.66
2019-04-20T08:14:24.188Z,101020.52
2019-04-20T08:17:09.715Z,101019.41
2019-04-20T08:19:23.490Z,101012.94
2019-04-20T08:22:04.666Z,101010.42
2019-04-20T08:24:30.549Z,101018.98
2019-04-20T08:26:50.283Z,101021.14
2019-04-20T08:29:45.089Z,101022.25
2019-04-20T08:32:38.821Z,101018.91
2019-04-20T08:35:22.853Z,101016.87
2019-04-20T08:37:48.922Z,101015.28
2019-04-20T08:40:19.788Z,101010.61
2019-04-20T08:43:00.577Z,101011.94
2019-04-20T08:45:23.621Z,101017.00
2019-04-20T08:47:56.423Z,101006.70
2019-04-20T08:50:22.565Z,101006.65
2019-04-20T08:55:23.996Z,101003.59
2019-04-20T08:57:37.911Z,101009.13
2019-04-20T09:00:09.453Z,101001.78
2019-04-20T09:02:43.373Z,101009.86
2019-04-20T09:05:24.939Z,101003.50
2019-04-20T09:07:54.166Z,101006.11
2019-04-20T09:10:35.738Z,101017.20
2019-04-20T09:12:58.605Z,101005.50
2019-04-20T09:15:17.074Z,101005.57
2019-04-20T09:18:01.922Z,101009.00
2019-04-20T09:20:42.349Z,100996.66
2019-04-20T09:23:25.081Z,101003.73
2019-04-20T09:28:42.463Z,100998.48
2019-04-20T09:31:39.525Z,100995.45
2019-04-20T09:34:15.820Z,100989.33
2019-04-20T09:37:14.167Z,100994.88
2019-04-20T09:40:04.838Z,100989.72
2019-04-20T09:42:23.230Z,100988.86
2019-04-20T09:44:55.947Z,100983.09
2019-04-20T09:47:33.824Z,100984.83
2019-04-20T09:50:10.880Z,100982.75
2019-04-20T09:52:38.163Z,100971.77
2019-04-20T09:55:10.519Z,100984.23
2019-04-20T09:57:50.310Z,100981.20
2019-04-20T10:00:16.854Z,100979.52
2019-04-20T10:02:34.768Z,100983.85
2019-04-20T10:05:05.239Z,100986.91
2019-04-20T10:07:37.272Z,100982.67
2019-04-20T10:10:20.264Z,100988.48
2019-04-20T10:12:39.853Z,100986.73
2019-04-20T10:15:15.645Z,100998.48
2019-04-20T10:17:41.440Z,101002.52
2019-04-20T10:20:19.333Z,101003.81
2019-04-20T10:22:42.620Z,100988.81
2019-04-20T10:25:12.873Z,101001.27
2019-04-20T10:27:43.624Z,101006.18
2019-04-20T10:30:14.583Z,101004.80
2019-04-20T10:32:47.268Z,100998.35
2019-04-20T10:35:18.581Z,100991.75
2019-04-20T10:37:51.543Z,100991.47
2019-04-20T10:40:36.851Z,100982.73
2019-04-20T10:42:53.152Z,100989.48
2019-04-20T10:45:23.005Z,100981.27
2019-04-20T10:47:54.968Z,100981.44
2019-04-20T10:50:25.123Z,100976.31
2019-04-20T10:52:56.002Z,100969.28
2019-04-20T10:55:27.144Z,100974.73
2019-04-20T10:57:57.684Z,100977.72
2019-04-20T11:00:46.596Z,100978.91
2019-04-20T11:03:17.634Z,100978.88
2019-04-20T11:05:48.767Z,100973.33
2019-04-20T11:08:20.214Z,100968.91
2019-04-20T11:11:01.466Z,100977.12
2019-04-20T11:13:21.544Z,100977.62
2019-04-20T11:15:52.558Z,100978.06
2019-04-20T11:18:22.294Z,100975.88
2019-04-20T11:20:53.198Z,100974.53
2019-04-20T11:23:22.922Z,100968.77
2019-04-20T11:25:52.759Z,100972.00
2019-04-20T11:28:22.433Z,100973.83
2019-04-20T11:30:52.188Z,100972.83
2019-04-20T11:33:22.361Z,100963.84
2019-04-20T11:35:52.004Z,100968.89
2019-04-20T11:38:22.030Z,100959.33
2019-04-20T11:41:04.170Z,100958.61
2019-04-20T11:43:23.976Z,100964.99
2019-04-20T11:45:54.429Z,100967.58
2019-04-20T11:48:25.470Z,100961.11
2019-04-20T11:50:55.815Z,100962.46
2019-04-20T11:53:26.887Z,100954.02
2019-04-20T11:55:58.383Z,100958.80
2019-04-20T11:58:28.282Z,100953.80
2019-04-20T12:01:04.176Z,100961.76
2019-04-20T12:03:40.154Z,100956.09
2019-04-20T12:06:04.766Z,100958.05
2019-04-20T12:08:36.921Z,100960.43
2019-04-20T12:11:21.667Z,100958.20
2019-04-20T12:13:36.558Z,100964.27
2019-04-20T12:16:07.616Z,100959.66
2019-04-20T12:18:37.953Z,100950.58
2019-04-20T12:21:08.542Z,100954.02
2019-04-20T12:23:38.327Z,100955.48
2019-04-20T12:26:08.945Z,100953.44
2019-04-20T12:28:40.087Z,100955.61
2019-04-20T12:31:13.719Z,100952.04
2019-04-20T12:33:42.226Z,100950.97
2019-04-20T12:36:12.475Z,100946.39
2019-04-20T12:38:43.366Z,100942.22
2019-04-20T12:41:14.473Z,100953.93
2019-04-20T12:43:45.684Z,100954.69
2019-04-20T12:46:18.356Z,100951.27
2019-04-20T12:48:47.428Z,100923.56
2019-04-20T12:51:25.239Z,100952.11
2019-04-20T12:53:52.754Z,100954.18
2019-04-20T12:56:22.486Z,100954.69
2019-04-20T12:58:53.526Z,100951.98
2019-04-20T13:01:24.544Z,100948.15
2019-04-20T13:03:55.365Z,100951.16
2019-04-20T13:06:25.816Z,100948.03
2019-04-20T13:08:58.624Z,100921.77
2019-04-20T13:11:38.618Z,100948.09
2019-04-20T13:14:42.337Z,100944.12
2019-04-20T13:17:12.384Z,100945.08
2019-04-20T13:19:42.200Z,100944.58
2019-04-20T13:22:12.969Z,100945.70
2019-04-20T13:24:43.181Z,100946.48
2019-04-20T13:27:13.211Z,100942.82
2019-04-20T13:29:47.208Z,100936.80
2019-04-20T13:32:15.934Z,100945.16
2019-04-20T13:34:46.584Z,100942.00
2019-04-20T13:37:16.291Z,100941.02
2019-04-20T13:39:46.882Z,100941.77
2019-04-20T13:42:22.712Z,100939.16
2019-04-20T13:44:48.743Z,100941.89
2019-04-20T13:47:19.099Z,100942.03
2019-04-20T13:49:49.302Z,100937.20
2019-04-20T13:52:18.896Z,100936.00
2019-04-20T13:54:49.688Z,100932.33
2019-04-20T13:57:23.985Z,100938.92
2019-04-20T13:59:58.037Z,100924.60
2019-04-20T14:02:48.854Z,100924.06
2019-04-20T14:05:31.139Z,100926.16
2019-04-20T14:08:03.116Z,100920.08
2019-04-20T14:10:33.408Z,100917.00
2019-04-20T14:13:11.266Z,100921.45
2019-04-20T14:15:35.292Z,100920.94
2019-04-20T14:18:05.006Z,100917.91
2019-04-20T14:20:34.583Z,100919.53
2019-04-20T14:23:05.252Z,100916.01
2019-04-20T14:25:35.114Z,100916.30
2019-04-20T14:28:04.987Z,100920.56
2019-04-20T14:30:35.160Z,100923.88
2019-04-20T14:33:05.286Z,100916.88
2019-04-20T14:35:34.981Z,100922.09
2019-04-20T14:38:05.899Z,100916.27
2019-04-20T14:40:36.676Z,100918.24
2019-04-20T14:43:06.818Z,100915.73
2019-04-20T14:45:36.731Z,100921.93
2019-04-20T14:48:06.272Z,100926.38
2019-04-20T14:50:35.965Z,100918.67
2019-04-20T14:53:05.693Z,100919.22
2019-04-20T14:55:35.553Z,100916.71
2019-04-20T14:58:09.539Z,100917.38
2019-04-20T15:00:53.662Z,100913.50
2019-04-20T15:03:38.333Z,100910.29
2019-04-20T15:06:07.486Z,100908.91
2019-04-20T15:08:38.682Z,100910.59
2019-04-20T15:11:09.290Z,100909.89
2019-04-20T15:13:40.521Z,100910.36
2019-04-20T15:16:10.897Z,100916.57
2019-04-20T15:18:45.550Z,100908.75
2019-04-20T15:21:17.628Z,100907.73
2019-04-20T15:23:47.906Z,100915.34
2019-04-20T15:26:18.438Z,100914.87
2019-04-20T15:28:48.423Z,100915.89
2019-04-20T15:31:18.451Z,100917.33
2019-04-20T15:33:48.873Z,100918.37
2019-04-20T15:36:18.519Z,100919.80
2019-04-20T15:38:49.400Z,100921.50
2019-04-20T15:41:19.002Z,100918.82
2019-04-20T15:43:49.102Z,100915.13
2019-04-20T15:46:19.415Z,100921.32
2019-04-20T15:48:50.229Z,100919.47
2019-04-20T15:51:19.906Z,100913.05
2019-04-20T15:53:49.604Z,100916.75
2019-04-20T15:56:20.606Z,100917.44
2019-04-20T15:58:50.547Z,100916.06
2019-04-20T16:01:22.816Z,100913.84
2019-04-20T16:04:01.340Z,100911.64
2019-04-20T16:06:31.585Z,100912.29
2019-04-20T16:09:04.185Z,100907.72
2019-04-20T16:11:35.075Z,100909.42
2019-04-20T16:14:05.367Z,100910.56
2019-04-20T16:16:35.607Z,100911.87
2019-04-20T16:19:15.930Z,100908.84
2019-04-20T16:21:37.484Z,100908.97
2019-04-20T16:24:16.919Z,100911.98
2019-04-20T16:27:05.503Z,100918.53
2019-04-20T16:29:35.588Z,100912.06
2019-04-20T16:32:06.635Z,100918.77
2019-04-20T16:34:37.151Z,100918.20
2019-04-20T16:37:08.620Z,100916.30
2019-04-20T16:39:38.687Z,100914.56
2019-04-20T16:42:09.980Z,100917.91
2019-04-20T16:44:40.987Z,100916.12
2019-04-20T16:47:10.660Z,100918.76
2019-04-20T16:49:41.163Z,100917.02
2019-04-20T16:52:10.744Z,100922.19
2019-04-20T16:54:41.727Z,100917.05
2019-04-20T16:57:13.088Z,100920.82
2019-04-20T16:59:47.065Z,100917.98
2019-04-20T17:02:16.561Z,100922.59
2019-04-20T17:04:47.121Z,100920.67
2019-04-20T17:07:39.282Z,100925.42
2019-04-20T17:10:09.765Z,100922.59
2019-04-20T17:12:39.955Z,100931.81
2019-04-20T17:15:09.899Z,100930.95
2019-04-20T17:17:39.937Z,100926.75
2019-04-20T17:20:11.469Z,100931.42
2019-04-20T17:22:42.005Z,100934.07
2019-04-20T17:25:12.307Z,100941.94
2019-04-20T17:28:07.049Z,100933.02
2019-04-20T17:31:00.897Z,100935.85
2019-04-20T17:34:06.580Z,100932.96
2019-04-20T17:36:31.249Z,100940.83
2019-04-20T17:39:03.719Z,100941.95
2019-04-20T17:41:48.852Z,100940.47
2019-04-20T17:44:21.030Z,100945.69
2019-04-20T17:46:45.243Z,100950.55
2019-04-20T17:49:21.011Z,100948.70
2019-04-20T17:51:58.209Z,100944.18
2019-04-20T17:54:22.466Z,100947.33
2019-04-20T17:56:52.318Z,100947.11
2019-04-20T17:59:22.355Z,100960.83
2019-04-20T18:02:26.612Z,100957.50
2019-04-20T18:05:20.392Z,100959.03
2019-04-20T18:07:58.938Z,100958.50
2019-04-20T18:10:16.098Z,100964.73
2019-04-20T18:12:32.781Z,100953.06
2019-04-20T18:15:16.859Z,100964.49
2019-04-20T18:18:08.421Z,100972.78
2019-04-20T18:20:30.519Z,100973.52
2019-04-20T18:23:00.504Z,100971.27
2019-04-20T18:25:58.830Z,100975.53
2019-04-20T18:28:16.167Z,100974.73
2019-04-20T18:30:48.841Z,100970.25
2019-04-20T18:33:11.645Z,100972.84
2019-04-20T18:35:46.024Z,100974.44
2019-04-20T18:38:16.597Z,100974.69
2019-04-20T18:40:53.365Z,100973.63
2019-04-20T18:43:22.046Z,100969.62
2019-04-20T18:46:08.071Z,100972.80
2019-04-20T18:48:43.759Z,100969.06
2019-04-20T18:50:53.467Z,100979.77
2019-04-20T18:53:31.832Z,100971.27
2019-04-20T18:55:56.054Z,100979.41
2019-04-20T18:58:24.910Z,100970.45
2019-04-20T19:00:55.496Z,100965.84
2019-04-20T19:03:32.696Z,100969.64
2019-04-20T19:05:57.932Z,100966.13
2019-04-20T19:08:35.016Z,100967.47
2019-04-20T19:11:06.937Z,100966.78
2019-04-20T19:13:49.220Z,100967.02
2019-04-20T19:16:34.776Z,100963.25
2019-04-20T19:19:24.269Z,100960.13
2019-04-20T19:21:45.939Z,100961.72
2019-04-20T19:24:19.353Z,100961.95
2019-04-20T19:26:54.514Z,100970.62
2019-04-20T19:29:31.345Z,100962.84
2019-04-20T19:32:15.825Z,100956.28
2019-04-20T19:34:36.462Z,100958.11
2019-04-20T19:37:04.059Z,100959.44
2019-04-20T19:39:43.606Z,100948.51
2019-04-20T19:42:11.743Z,100952.39
2019-04-20T19:44:49.520Z,100954.34
2019-04-20T19:47:21.370Z,100948.14
2019-04-20T19:49:44.015Z,100950.33
2019-04-20T19:55:00.003Z,100951.30
2019-04-20T19:57:35.115Z,100951.09
2019-04-20T19:59:49.488Z,100952.52
2019-04-20T20:02:13.904Z,100950.33
2019-04-20T20:04:49.282Z,100954.49
2019-04-20T20:07:21.966Z,100947.56
2019-04-20T20:09:53.123Z,100950.00
2019-04-20T20:12:20.800Z,100947.73
2019-04-20T20:14:51.306Z,100947.97
2019-04-20T20:17:45.587Z,100942.02
2019-04-20T20:20:19.957Z,100938.49
2019-04-20T20:22:32.614Z,100937.64
2019-04-20T20:24:54.894Z,100939.13
2019-04-20T20:27:32.622Z,100943.53
2019-04-20T20:30:05.616Z,100936.13
2019-04-20T20:32:47.950Z,100939.03
2019-04-20T20:35:05.638Z,100943.91
2019-04-20T20:37:39.675Z,100939.05
2019-04-20T20:40:15.207Z,100942.97
2019-04-20T20:42:49.128Z,100942.11
2019-04-20T20:45:16.041Z,100940.19
2019-04-20T20:47:53.782Z,100941.27
2019-04-20T20:50:25.655Z,100935.69
2019-04-20T20:52:57.895Z,100946.75
2019-04-20T20:55:22.103Z,100940.22
2019-04-20T20:57:49.501Z,100942.73
2019-04-20T21:00:23.925Z,100940.70
2019-04-20T21:02:52.839Z,100937.88
2019-04-20T21:05:15.784Z,100933.54
2019-04-20T21:07:48.297Z,100936.33
2019-04-20T21:10:25.875Z,100938.14
2019-04-20T21:12:54.114Z,100938.02
2019-04-20T21:15:22.832Z,100937.66
2019-04-20T21:18:17.408Z,100935.31
2019-04-20T21:20:44.914Z,100929.88
2019-04-20T21:23:07.309Z,100933.38
2019-04-20T21:25:37.056Z,100931.45
2019-04-20T21:28:02.542Z,100934.36
2019-04-20T21:30:38.417Z,100936.77
2019-04-20T21:33:06.015Z,100935.42
2019-04-20T21:35:38.210Z,100931.53
2019-04-20T21:38:09.673Z,100933.47
2019-04-20T21:40:41.374Z,100931.66
2019-04-20T21:43:10.985Z,100933.95
2019-04-20T21:45:49.794Z,100933.81
2019-04-20T21:48:31.686Z,100932.37
2019-04-20T21:51:01.525Z,100925.19
2019-04-20T21:53:21.343Z,100926.61
2019-04-20T21:55:46.322Z,100928.78
2019-04-20T21:58:18.409Z,100921.98
2019-04-20T22:01:06.690Z,100933.00
2019-04-20T22:03:26.831Z,100934.92
2019-04-20T22:06:06.918Z,100927.99
2019-04-20T22:08:39.483Z,100931.61
2019-04-20T22:11:08.541Z,100930.99
2019-04-20T22:13:42.111Z,100931.98
2019-04-20T22:16:12.448Z,100933.17
2019-04-20T22:18:59.187Z,100924.97
2019-04-20T22:21:21.033Z,100929.59
2019-04-20T22:24:00.542Z,100929.70
2019-04-20T22:26:25.387Z,100930.23
2019-04-20T22:28:47.941Z,100926.60
2019-04-20T22:31:18.328Z,100929.27
2019-04-20T22:33:48.935Z,100926.45
2019-04-20T22:36:20.254Z,100926.19
2019-04-20T22:39:09.554Z,100920.63
2019-04-20T22:41:56.337Z,100921.82
2019-04-20T22:44:26.672Z,100920.34
2019-04-20T22:46:54.701Z,100918.66
2019-04-20T22:49:40.062Z,100919.25
2019-04-20T22:52:06.154Z,100912.45
2019-04-20T22:54:43.315Z,100908.33
2019-04-20T22:57:09.367Z,100917.72
2019-04-20T22:59:39.874Z,100910.94
2019-04-20T23:02:03.952Z,100911.69
2019-04-20T23:04:33.104Z,100908.40
2019-04-20T23:07:03.124Z,100915.16
2019-04-20T23:09:39.471Z,100906.89
2019-04-20T23:12:11.219Z,100906.61
2019-04-20T23:14:36.381Z,100903.95
2019-04-20T23:17:06.418Z,100898.72
2019-04-20T23:19:43.513Z,100895.31
2019-04-20T23:22:10.495Z,100891.53
2019-04-20T23:24:39.342Z,100891.80
2019-04-20T23:27:14.049Z,100889.23
2019-04-20T23:29:41.698Z,100893.82
2019-04-20T23:32:14.186Z,100892.73
2019-04-20T23:34:44.638Z,100882.67
2019-04-20T23:37:21.443Z,100887.95
2019-04-20T23:39:49.106Z,100881.19
2019-04-20T23:42:21.938Z,100880.44
2019-04-20T23:45:00.394Z,100877.56
2019-04-20T23:47:45.795Z,100876.23
2019-04-20T23:50:30.573Z,100878.31
2019-04-20T23:53:06.601Z,100879.00
2019-04-20T23:55:16.992Z,100874.27
2019-04-20T23:57:50.590Z,100871.74
